createdAt,value
2022-08-27T00:00:08.203Z,0
2022-08-27T00:01:10.209Z,0
2022-08-27T00:02:12.207Z,0
2022-08-27T00:03:14.182Z,0
2022-08-27T00:04:16.230Z,0
2022-08-27T00:05:18.151Z,0
2022-08-27T00:06:20.184Z,0
2022-08-27T00:07:22.154Z,0
2022-08-27T00:08:24.169Z,0
2022-08-27T00:09:26.951Z,0
2022-08-27T00:10:28.219Z,0
2022-08-27T00:11:30.166Z,0
2022-08-27T00:12:32.173Z,1
2022-08-27T00:13:34.167Z,1
2022-08-27T00:14:36.172Z,1
2022-08-27T00:15:38.223Z,0
2022-08-27T00:16:40.288Z,0
2022-08-27T00:17:42.195Z,1
2022-08-27T00:18:44.187Z,0
2022-08-27T00:19:46.186Z,0
2022-08-27T00:20:48.192Z,0
2022-08-27T00:22:05.538Z,0
2022-08-27T00:23:07.184Z,0
2022-08-27T00:24:09.177Z,0
2022-08-27T00:25:11.193Z,0
2022-08-27T00:26:13.189Z,0
2022-08-27T00:27:15.230Z,0
2022-08-27T00:28:17.251Z,0
2022-08-27T00:29:19.201Z,2
2022-08-27T00:30:21.202Z,2
2022-08-27T00:31:23.683Z,3
2022-08-27T00:32:25.198Z,3
2022-08-27T00:33:27.255Z,2
2022-08-27T00:34:29.186Z,2
2022-08-27T00:35:31.218Z,2
2022-08-27T00:36:33.213Z,2
2022-08-27T00:37:35.253Z,3
2022-08-27T00:38:37.282Z,2
2022-08-27T00:39:39.226Z,2
2022-08-27T00:40:41.214Z,1
2022-08-27T00:41:43.219Z,1
2022-08-27T00:42:45.280Z,0
2022-08-27T00:43:47.245Z,1
2022-08-27T00:44:49.223Z,1
2022-08-27T00:45:51.270Z,1
2022-08-27T00:46:53.252Z,2
2022-08-27T00:47:55.279Z,2
2022-08-27T00:48:57.227Z,1
2022-08-27T00:49:59.339Z,2
2022-08-27T00:51:01.279Z,2
2022-08-27T00:55:41.271Z,3
2022-08-27T00:56:43.262Z,2
2022-08-27T00:57:45.258Z,3
2022-08-27T00:58:47.250Z,4
2022-08-27T00:59:49.253Z,3
2022-08-27T01:00:51.311Z,3
2022-08-27T01:01:53.286Z,2
2022-08-27T01:02:55.281Z,3
2022-08-27T01:03:57.254Z,3
2022-08-27T01:04:59.260Z,3
2022-08-27T01:06:01.469Z,4
2022-08-27T01:07:03.266Z,4
2022-08-27T01:08:05.259Z,4
2022-08-27T01:09:07.285Z,4
2022-08-27T01:10:09.303Z,5
2022-08-27T01:11:11.325Z,6
2022-08-27T01:12:13.272Z,6
2022-08-27T01:13:16.316Z,5
2022-08-27T01:14:18.276Z,5
2022-08-27T01:15:20.389Z,5
2022-08-27T01:16:22.380Z,8
2022-08-27T01:17:24.287Z,9
2022-08-27T01:18:26.306Z,8
2022-08-27T01:19:28.386Z,6
2022-08-27T01:20:30.277Z,5
2022-08-27T01:21:32.305Z,6
2022-08-27T01:22:34.360Z,6
2022-08-27T01:23:36.291Z,5
2022-08-27T01:24:38.282Z,6
2022-08-27T01:25:40.315Z,6
2022-08-27T01:26:42.337Z,6
2022-08-27T01:27:44.359Z,6
2022-08-27T01:28:46.295Z,6
2022-08-27T01:29:48.300Z,6
2022-08-27T01:30:51.240Z,6
2022-08-27T01:31:53.369Z,6
2022-08-27T01:32:56.197Z,5
2022-08-27T01:33:58.300Z,5
2022-08-27T01:35:00.504Z,5
2022-08-27T01:36:02.461Z,4
2022-08-27T01:37:04.461Z,5
2022-08-27T01:38:07.891Z,5
2022-08-27T01:39:08.349Z,4
2022-08-27T01:40:10.394Z,5
2022-08-27T01:41:13.433Z,4
2022-08-27T01:42:16.221Z,4
2022-08-27T01:43:18.359Z,4
2022-08-27T01:44:20.955Z,5
2022-08-27T01:45:22.325Z,4
2022-08-27T01:46:24.478Z,4
2022-08-27T01:47:28.192Z,4
2022-08-27T01:48:28.371Z,5
2022-08-27T01:49:30.334Z,5
2022-08-27T01:50:32.327Z,5
2022-08-27T01:51:34.347Z,4
2022-08-27T01:52:36.329Z,4
2022-08-27T01:53:38.399Z,4
2022-08-27T01:54:40.331Z,4
2022-08-27T01:55:43.464Z,5
2022-08-27T01:56:46.406Z,5
2022-08-27T01:57:48.345Z,6
2022-08-27T01:58:50.434Z,6
2022-08-27T01:59:52.349Z,4
2022-08-27T02:00:56.504Z,5
2022-08-27T02:01:56.371Z,5
2022-08-27T02:02:58.356Z,6
2022-08-27T02:04:00.404Z,6
2022-08-27T02:05:02.487Z,6
2022-08-27T02:06:04.360Z,6
2022-08-27T02:07:06.360Z,6
2022-08-27T02:08:08.373Z,5
2022-08-27T02:09:10.377Z,5
2022-08-27T02:10:12.397Z,6
2022-08-27T02:11:14.381Z,6
2022-08-27T02:12:16.365Z,8
2022-08-27T02:13:18.376Z,8
2022-08-27T02:14:20.378Z,8
2022-08-27T02:15:22.432Z,8
2022-08-27T02:16:25.183Z,9
2022-08-27T02:17:26.370Z,9
2022-08-27T02:18:28.379Z,9
2022-08-27T02:19:30.437Z,9
2022-08-27T02:20:32.410Z,9
2022-08-27T02:21:34.382Z,9
2022-08-27T02:22:36.483Z,9
2022-08-27T02:23:38.393Z,9
2022-08-27T02:24:40.707Z,9
2022-08-27T02:25:42.429Z,9
2022-08-27T02:26:44.396Z,9
2022-08-27T02:27:46.385Z,9
2022-08-27T02:28:48.402Z,9
2022-08-27T02:29:50.470Z,8
2022-08-27T02:30:52.794Z,8
2022-08-27T02:31:55.147Z,9
2022-08-27T02:32:57.191Z,10
2022-08-27T02:33:59.463Z,9
2022-08-27T02:35:01.699Z,9
2022-08-27T02:36:04.528Z,9
2022-08-27T02:37:07.260Z,9
2022-08-27T02:38:09.755Z,9
2022-08-27T02:39:11.524Z,9
2022-08-27T02:40:13.512Z,9
2022-08-27T02:41:15.442Z,9
2022-08-27T02:42:17.427Z,9
2022-08-27T02:43:24.877Z,8
2022-08-27T02:44:21.452Z,9
2022-08-27T02:45:23.451Z,9
2022-08-27T02:46:25.530Z,10
2022-08-27T02:47:27.438Z,10
2022-08-27T02:48:29.489Z,11
2022-08-27T02:49:31.464Z,10
2022-08-27T02:50:33.438Z,11
2022-08-27T02:51:35.453Z,11
2022-08-27T02:52:38.495Z,11
2022-08-27T02:53:41.472Z,11
2022-08-27T02:54:43.523Z,11
2022-08-27T02:55:46.290Z,10
2022-08-27T02:56:48.558Z,10
2022-08-27T02:57:50.452Z,10
2022-08-27T02:58:52.443Z,10
2022-08-27T02:59:54.480Z,10
2022-08-27T03:00:56.461Z,9
2022-08-27T03:01:58.533Z,11
2022-08-27T03:03:00.515Z,10
2022-08-27T03:04:02.460Z,12
2022-08-27T03:05:04.478Z,11
2022-08-27T03:06:06.467Z,12
2022-08-27T03:07:08.472Z,12
2022-08-27T03:08:10.630Z,11
2022-08-27T03:09:13.540Z,11
2022-08-27T03:10:15.508Z,11
2022-08-27T03:11:17.476Z,12
2022-08-27T03:12:19.467Z,12
2022-08-27T03:13:21.472Z,13
2022-08-27T03:14:24.507Z,13
2022-08-27T03:15:27.306Z,13
2022-08-27T03:16:28.550Z,13
2022-08-27T03:17:30.477Z,13
2022-08-27T03:18:33.273Z,12
2022-08-27T03:19:34.511Z,13
2022-08-27T03:20:36.481Z,13
2022-08-27T03:21:38.478Z,16
2022-08-27T03:22:40.479Z,16
2022-08-27T03:23:42.483Z,16
2022-08-27T03:24:44.504Z,14
2022-08-27T03:25:46.529Z,14
2022-08-27T03:26:52.475Z,16
2022-08-27T03:27:51.015Z,16
2022-08-27T03:28:52.504Z,16
2022-08-27T03:29:54.529Z,16
2022-08-27T03:30:56.540Z,17
2022-08-27T03:31:58.507Z,14
2022-08-27T03:33:01.636Z,14
2022-08-27T03:38:35.530Z,13
2022-08-27T03:39:37.645Z,13
2022-08-27T03:40:39.517Z,12
2022-08-27T03:41:43.882Z,12
2022-08-27T03:42:43.539Z,12
2022-08-27T03:43:45.544Z,12
2022-08-27T03:44:47.594Z,12
2022-08-27T03:45:57.094Z,12
2022-08-27T03:46:51.665Z,13
2022-08-27T03:47:54.460Z,12
2022-08-27T03:48:57.358Z,12
2022-08-27T03:49:58.524Z,13
2022-08-27T03:51:00.544Z,12
2022-08-27T03:52:02.556Z,12
2022-08-27T03:53:04.535Z,13
2022-08-27T03:54:06.531Z,14
2022-08-27T03:55:08.538Z,13
2022-08-27T03:56:10.531Z,13
2022-08-27T03:57:12.592Z,13
2022-08-27T03:58:14.533Z,13
2022-08-27T03:59:16.559Z,13
2022-08-27T04:00:18.581Z,13
2022-08-27T04:01:20.622Z,14
2022-08-27T04:02:22.651Z,14
2022-08-27T04:03:24.568Z,16
2022-08-27T04:04:26.597Z,16
2022-08-27T04:05:28.567Z,16
2022-08-27T04:06:30.554Z,17
2022-08-27T04:07:32.591Z,19
2022-08-27T04:08:34.561Z,18
2022-08-27T04:09:36.584Z,17
2022-08-27T04:10:38.560Z,17
2022-08-27T04:11:40.573Z,16
2022-08-27T04:12:42.570Z,15
2022-08-27T04:13:44.569Z,14
2022-08-27T04:14:46.588Z,14
2022-08-27T04:15:48.608Z,16
2022-08-27T04:16:50.785Z,16
2022-08-27T04:17:52.578Z,14
2022-08-27T04:18:54.576Z,16
2022-08-27T04:19:56.627Z,17
2022-08-27T04:20:58.588Z,19
2022-08-27T04:22:00.586Z,21
2022-08-27T04:23:02.576Z,23
2022-08-27T04:24:04.596Z,23
2022-08-27T04:25:09.911Z,24
2022-08-27T04:26:08.632Z,24
2022-08-27T04:27:10.662Z,24
2022-08-27T04:28:12.647Z,24
2022-08-27T04:29:14.594Z,24
2022-08-27T04:30:17.282Z,25
2022-08-27T04:31:18.672Z,26
2022-08-27T04:32:20.646Z,25
2022-08-27T04:33:22.601Z,25
2022-08-27T04:34:24.600Z,26
2022-08-27T04:35:26.674Z,24
2022-08-27T04:36:28.614Z,21
2022-08-27T04:37:30.598Z,23
2022-08-27T04:38:32.609Z,23
2022-08-27T04:39:34.630Z,24
2022-08-27T04:40:36.655Z,25
2022-08-27T04:41:38.607Z,25
2022-08-27T04:42:40.644Z,20
2022-08-27T04:43:42.617Z,21
2022-08-27T04:44:44.625Z,19
2022-08-27T04:45:46.677Z,19
2022-08-27T04:46:49.190Z,19
2022-08-27T04:47:50.662Z,18
2022-08-27T04:48:52.630Z,17
2022-08-27T04:49:55.202Z,17
2022-08-27T04:50:56.698Z,18
2022-08-27T04:51:58.624Z,18
2022-08-27T04:53:00.634Z,17
2022-08-27T04:54:02.668Z,18
2022-08-27T04:55:04.678Z,17
2022-08-27T04:56:06.675Z,18
2022-08-27T04:57:08.652Z,16
2022-08-27T04:58:10.806Z,16
2022-08-27T04:59:12.663Z,16
2022-08-27T05:00:14.668Z,17
2022-08-27T05:01:16.754Z,17
2022-08-27T05:02:18.646Z,17
2022-08-27T05:03:20.640Z,17
2022-08-27T05:04:22.647Z,17
2022-08-27T05:05:24.690Z,17
2022-08-27T05:06:26.722Z,16
2022-08-27T05:07:28.696Z,16
2022-08-27T05:08:30.659Z,16
2022-08-27T05:09:32.651Z,14
2022-08-27T05:10:34.721Z,14
2022-08-27T05:11:36.682Z,16
2022-08-27T05:12:38.657Z,16
2022-08-27T05:13:40.663Z,14
2022-08-27T05:14:42.688Z,14
2022-08-27T05:15:44.763Z,16
2022-08-27T05:16:46.727Z,17
2022-08-27T05:17:48.666Z,16
2022-08-27T05:18:50.673Z,16
2022-08-27T05:19:52.669Z,14
2022-08-27T05:20:54.704Z,15
2022-08-27T05:21:56.717Z,13
2022-08-27T05:22:58.682Z,13
2022-08-27T05:24:00.724Z,13
2022-08-27T05:25:02.731Z,12
2022-08-27T05:26:04.686Z,12
2022-08-27T05:27:06.704Z,12
2022-08-27T05:28:08.736Z,12
2022-08-27T05:29:10.759Z,12
2022-08-27T05:30:12.731Z,13
2022-08-27T05:31:14.805Z,12
2022-08-27T05:32:16.700Z,12
2022-08-27T05:33:18.737Z,12
2022-08-27T05:34:22.086Z,12
2022-08-27T05:35:22.691Z,13
2022-08-27T05:36:24.769Z,13
2022-08-27T05:37:26.700Z,13
2022-08-27T05:38:28.711Z,12
2022-08-27T05:39:30.697Z,12
2022-08-27T05:40:32.811Z,11
2022-08-27T05:41:34.740Z,12
2022-08-27T05:42:36.710Z,11
2022-08-27T05:43:38.727Z,11
2022-08-27T05:44:41.769Z,12
2022-08-27T05:45:42.745Z,11
2022-08-27T05:46:44.858Z,12
2022-08-27T05:47:46.718Z,14
2022-08-27T05:48:48.727Z,17
2022-08-27T05:49:50.727Z,16
2022-08-27T05:50:52.736Z,16
2022-08-27T05:51:54.801Z,17
2022-08-27T05:52:56.725Z,18
2022-08-27T05:53:58.726Z,18
2022-08-27T05:55:00.742Z,20
2022-08-27T05:56:02.783Z,19
2022-08-27T05:57:04.775Z,18
2022-08-27T05:58:06.745Z,16
2022-08-27T05:59:08.847Z,16
2022-08-27T06:00:11.470Z,17
2022-08-27T06:01:12.743Z,16
2022-08-27T06:02:14.773Z,17
2022-08-27T06:03:16.750Z,19
2022-08-27T06:04:18.846Z,19
2022-08-27T06:05:20.775Z,20
2022-08-27T06:06:22.757Z,21
2022-08-27T06:07:24.755Z,20
2022-08-27T06:08:26.762Z,19
2022-08-27T06:09:28.783Z,19
2022-08-27T06:10:30.794Z,18
2022-08-27T06:11:32.785Z,18
2022-08-27T06:12:34.765Z,18
2022-08-27T06:13:36.766Z,19
2022-08-27T06:14:38.776Z,19
2022-08-27T06:15:40.902Z,20
2022-08-27T06:16:42.990Z,20
2022-08-27T06:17:44.768Z,25
2022-08-27T06:18:46.780Z,24
2022-08-27T06:19:48.776Z,26
2022-08-27T06:20:50.987Z,27
2022-08-27T06:21:59.993Z,29
2022-08-27T06:22:54.952Z,28
2022-08-27T06:23:56.837Z,28
2022-08-27T06:24:58.789Z,28
2022-08-27T06:26:00.934Z,28
2022-08-27T06:27:02.796Z,28
2022-08-27T06:28:04.791Z,28
2022-08-27T06:29:06.806Z,28
2022-08-27T06:30:08.860Z,29
2022-08-27T06:31:10.859Z,29
2022-08-27T06:32:12.800Z,29
2022-08-27T06:33:14.857Z,27
2022-08-27T06:34:16.823Z,27
2022-08-27T06:35:19.009Z,27
2022-08-27T06:36:20.810Z,27
2022-08-27T06:37:22.817Z,27
2022-08-27T06:38:24.843Z,26
2022-08-27T06:39:26.807Z,26
2022-08-27T06:40:29.111Z,27
2022-08-27T06:41:30.853Z,28
2022-08-27T06:42:32.834Z,25
2022-08-27T06:43:34.852Z,25
2022-08-27T06:44:36.838Z,25
2022-08-27T06:45:38.825Z,25
2022-08-27T06:46:40.921Z,24
2022-08-27T06:47:42.830Z,25
2022-08-27T06:48:44.913Z,26
2022-08-27T06:49:46.870Z,26
2022-08-27T06:50:48.838Z,28
2022-08-27T06:51:50.847Z,26
2022-08-27T06:52:52.849Z,26
2022-08-27T06:53:54.883Z,26
2022-08-27T06:54:56.893Z,26
2022-08-27T06:55:58.861Z,26
2022-08-27T06:57:01.093Z,26
2022-08-27T06:58:02.860Z,24
2022-08-27T06:59:05.777Z,25
2022-08-27T07:00:06.899Z,21
2022-08-27T07:01:08.892Z,21
2022-08-27T07:02:11.950Z,24
2022-08-27T07:03:13.262Z,25
2022-08-27T07:04:14.873Z,27
2022-08-27T07:05:16.867Z,27
2022-08-27T07:06:18.957Z,27
2022-08-27T07:07:30.163Z,26
2022-08-27T07:08:23.015Z,26
2022-08-27T07:09:24.873Z,25
2022-08-27T07:10:26.879Z,25
2022-08-27T07:11:28.875Z,27
2022-08-27T07:12:31.054Z,29
2022-08-27T07:13:32.906Z,29
2022-08-27T07:14:37.905Z,29
2022-08-27T07:15:36.949Z,28
2022-08-27T07:16:40.854Z,28
2022-08-27T07:17:40.902Z,29
2022-08-27T07:18:42.897Z,28
2022-08-27T07:19:44.940Z,-1
2022-08-27T07:20:46.890Z,27
2022-08-27T07:21:48.900Z,25
2022-08-27T07:22:50.901Z,26
2022-08-27T07:23:52.988Z,28
2022-08-27T07:24:54.257Z,27
2022-08-27T07:25:55.281Z,28
2022-08-27T07:26:56.906Z,29
2022-08-27T07:27:58.453Z,32
2022-08-27T07:28:59.929Z,34
2022-08-27T07:30:01.749Z,33
2022-08-27T07:31:02.974Z,33
2022-08-27T07:32:04.916Z,32
2022-08-27T07:33:06.919Z,29
2022-08-27T07:34:08.967Z,28
2022-08-27T07:35:10.923Z,29
2022-08-27T07:36:12.938Z,27
2022-08-27T07:37:14.934Z,26
2022-08-27T07:38:16.944Z,26
2022-08-27T07:39:18.949Z,27
2022-08-27T07:40:21.035Z,28
2022-08-27T07:41:22.308Z,28
2022-08-27T07:42:23.309Z,29
2022-08-27T07:43:24.355Z,32
2022-08-27T07:44:25.833Z,34
2022-08-27T07:45:26.346Z,34
2022-08-27T07:46:27.398Z,36
2022-08-27T07:47:28.965Z,34
2022-08-27T07:48:30.952Z,32
2022-08-27T07:49:32.948Z,29
2022-08-27T07:50:34.968Z,28
2022-08-27T07:51:37.062Z,27
2022-08-27T07:52:38.960Z,26
2022-08-27T07:53:40.951Z,27
2022-08-27T07:54:42.996Z,28
2022-08-27T07:55:44.954Z,29
2022-08-27T07:56:54.971Z,28
2022-08-27T07:57:47.314Z,32
2022-08-27T07:58:48.373Z,32
2022-08-27T07:59:49.413Z,34
2022-08-27T08:00:50.349Z,35
2022-08-27T08:01:51.415Z,36
2022-08-27T08:02:52.470Z,38
2022-08-27T08:03:53.358Z,39
2022-08-27T08:04:54.985Z,36
2022-08-27T08:05:56.998Z,33
2022-08-27T08:06:58.981Z,34
2022-08-27T08:08:01.035Z,33
2022-08-27T08:09:03.018Z,33
2022-08-27T08:10:05.031Z,31
2022-08-27T08:11:07.042Z,28
2022-08-27T08:12:09.154Z,29
2022-08-27T08:13:11.060Z,29
2022-08-27T08:14:12.990Z,31
2022-08-27T08:15:14.430Z,31
2022-08-27T08:16:15.985Z,29
2022-08-27T08:17:17.459Z,31
2022-08-27T08:18:18.452Z,32
2022-08-27T08:19:19.384Z,32
2022-08-27T08:20:31.001Z,34
2022-08-27T08:21:21.390Z,36
2022-08-27T08:22:22.391Z,34
2022-08-27T08:23:23.450Z,35
2022-08-27T08:24:24.415Z,35
2022-08-27T08:25:25.594Z,33
2022-08-27T08:26:27.025Z,33
2022-08-27T08:27:28.559Z,32
2022-08-27T08:28:30.103Z,29
2022-08-27T08:29:31.412Z,29
2022-08-27T08:30:33.166Z,29
2022-08-27T08:31:34.441Z,28
2022-08-27T08:32:35.412Z,29
2022-08-27T08:33:36.488Z,31
2022-08-27T08:34:37.428Z,31
2022-08-27T08:35:40.415Z,33
2022-08-27T08:36:39.394Z,32
2022-08-27T08:37:40.429Z,31
2022-08-27T08:38:41.453Z,33
2022-08-27T08:39:42.426Z,34
2022-08-27T08:40:43.460Z,36
2022-08-27T08:41:44.429Z,36
2022-08-27T08:42:50.472Z,36
2022-08-27T08:43:46.445Z,36
2022-08-27T08:44:47.508Z,35
2022-08-27T08:45:48.499Z,34
2022-08-27T08:46:49.481Z,35
2022-08-27T08:47:50.432Z,34
2022-08-27T08:48:51.434Z,33
2022-08-27T08:49:52.571Z,32
2022-08-27T08:50:53.458Z,32
2022-08-27T08:51:54.476Z,32
2022-08-27T08:52:55.446Z,33
2022-08-27T08:53:56.447Z,35
2022-08-27T08:54:57.454Z,32
2022-08-27T08:55:59.070Z,31
2022-08-27T08:57:00.498Z,30
2022-08-27T08:58:01.478Z,29
2022-08-27T08:59:02.606Z,29
2022-08-27T09:00:03.653Z,29
2022-08-27T09:01:05.150Z,28
2022-08-27T09:02:10.180Z,28
2022-08-27T09:03:09.104Z,26
2022-08-27T09:04:11.189Z,25
2022-08-27T09:05:13.084Z,26
2022-08-27T09:06:14.478Z,26
2022-08-27T09:07:15.500Z,28
2022-08-27T09:08:32.270Z,31
2022-08-27T09:09:17.542Z,31
2022-08-27T09:10:18.486Z,32
2022-08-27T09:11:19.445Z,29
2022-08-27T09:12:20.473Z,28
2022-08-27T09:13:21.494Z,31
2022-08-27T09:14:22.586Z,31
2022-08-27T09:15:23.512Z,31
2022-08-27T09:16:24.641Z,29
2022-08-27T09:17:25.684Z,31
2022-08-27T09:18:27.911Z,29
2022-08-27T09:19:27.517Z,31
2022-08-27T09:20:28.531Z,32
2022-08-27T09:21:30.157Z,32
2022-08-27T09:22:31.537Z,28
2022-08-27T09:23:32.572Z,28
2022-08-27T09:24:33.491Z,30
2022-08-27T09:25:34.553Z,31
2022-08-27T09:26:35.730Z,32
2022-08-27T09:27:36.552Z,33
2022-08-27T09:28:37.487Z,34
2022-08-27T09:29:38.507Z,31
2022-08-27T09:30:40.273Z,29
2022-08-27T09:31:41.549Z,28
2022-08-27T09:32:42.520Z,31
2022-08-27T09:33:46.113Z,32
2022-08-27T09:34:45.517Z,29
2022-08-27T09:35:47.186Z,28
2022-08-27T09:36:49.148Z,28
2022-08-27T09:37:51.168Z,26
2022-08-27T09:38:54.564Z,26
2022-08-27T09:39:55.185Z,27
2022-08-27T09:40:56.592Z,26
2022-08-27T09:41:57.544Z,26
2022-08-27T09:42:59.160Z,27
2022-08-27T09:44:01.178Z,25
2022-08-27T09:45:03.335Z,25
2022-08-27T09:46:05.392Z,26
2022-08-27T09:47:07.188Z,25
2022-08-27T09:48:09.267Z,23
2022-08-27T09:49:11.179Z,23
2022-08-27T09:50:13.174Z,25
2022-08-27T09:51:15.357Z,23
2022-08-27T09:52:16.563Z,24
2022-08-27T09:53:17.915Z,27
2022-08-27T09:54:18.512Z,31
2022-08-27T09:55:19.581Z,29
2022-08-27T09:56:20.661Z,31
2022-08-27T09:57:22.442Z,29
2022-08-27T09:58:24.194Z,32
2022-08-27T09:59:26.193Z,28
2022-08-27T10:00:28.200Z,26
2022-08-27T10:01:30.310Z,24
2022-08-27T10:02:32.232Z,26
2022-08-27T10:03:33.785Z,27
2022-08-27T10:04:35.223Z,27
2022-08-27T10:05:37.200Z,27
2022-08-27T10:06:39.245Z,27
2022-08-27T10:07:41.245Z,25
2022-08-27T10:08:43.218Z,25
2022-08-27T10:09:45.255Z,24
2022-08-27T10:10:47.223Z,24
2022-08-27T10:11:49.259Z,23
2022-08-27T10:12:51.232Z,24
2022-08-27T10:13:52.869Z,24
2022-08-27T10:14:54.228Z,24
2022-08-27T10:15:56.226Z,23
2022-08-27T10:16:58.361Z,23
2022-08-27T10:18:00.251Z,25
2022-08-27T10:19:02.633Z,24
2022-08-27T10:20:04.278Z,23
2022-08-27T10:21:06.247Z,21
2022-08-27T10:22:08.238Z,21
2022-08-27T10:23:10.252Z,21
2022-08-27T10:24:12.291Z,19
2022-08-27T10:25:14.244Z,20
2022-08-27T10:26:15.658Z,21
2022-08-27T10:27:16.668Z,23
2022-08-27T10:28:17.646Z,26
2022-08-27T10:29:18.690Z,27
2022-08-27T10:30:19.697Z,29
2022-08-27T10:31:20.902Z,29
2022-08-27T10:32:21.577Z,28
2022-08-27T10:33:23.626Z,31
2022-08-27T10:34:23.720Z,28
2022-08-27T10:35:25.281Z,28
2022-08-27T10:36:26.359Z,26
2022-08-27T10:37:26.672Z,27
2022-08-27T10:38:27.647Z,28
2022-08-27T10:39:28.648Z,27
2022-08-27T10:40:29.762Z,26
2022-08-27T10:41:30.686Z,26
2022-08-27T10:42:31.714Z,27
2022-08-27T10:43:32.717Z,29
2022-08-27T10:44:33.657Z,26
2022-08-27T10:45:34.694Z,26
2022-08-27T10:46:35.748Z,27
2022-08-27T10:47:36.724Z,29
2022-08-27T10:48:37.671Z,29
2022-08-27T10:49:38.677Z,33
2022-08-27T10:50:39.677Z,32
2022-08-27T10:51:40.686Z,33
2022-08-27T10:52:41.723Z,32
2022-08-27T10:53:42.717Z,31
2022-08-27T10:54:43.684Z,33
2022-08-27T10:55:44.685Z,32
2022-08-27T10:56:45.751Z,32
2022-08-27T10:57:56.684Z,32
2022-08-27T10:58:47.717Z,28
2022-08-27T10:59:48.717Z,27
2022-08-27T11:00:50.362Z,26
2022-08-27T11:01:51.752Z,26
2022-08-27T11:02:52.736Z,28
2022-08-27T11:03:53.703Z,29
2022-08-27T11:04:54.691Z,32
2022-08-27T11:05:55.726Z,31
2022-08-27T11:06:56.762Z,29
2022-08-27T11:07:57.752Z,28
2022-08-27T11:08:59.342Z,26
2022-08-27T11:10:01.342Z,24
2022-08-27T11:11:23.559Z,24
2022-08-27T11:12:19.156Z,24
2022-08-27T11:13:04.706Z,24
2022-08-27T11:14:05.718Z,25
2022-08-27T11:15:09.953Z,24
2022-08-27T11:16:07.790Z,24
2022-08-27T11:17:08.753Z,24
2022-08-27T11:18:09.924Z,24
2022-08-27T11:19:10.954Z,23
2022-08-27T11:20:12.007Z,20
2022-08-27T11:21:12.729Z,21
2022-08-27T11:22:17.235Z,25
2022-08-27T11:23:14.762Z,24
2022-08-27T11:24:15.739Z,24
2022-08-27T11:25:16.793Z,25
2022-08-27T11:26:18.377Z,24
2022-08-27T11:27:20.515Z,23
2022-08-27T11:28:26.709Z,21
2022-08-27T11:29:22.760Z,21
2022-08-27T11:30:24.397Z,21
2022-08-27T11:31:25.873Z,23
2022-08-27T11:32:26.760Z,24
2022-08-27T11:33:28.402Z,24
2022-08-27T11:34:29.769Z,23
2022-08-27T11:35:30.783Z,23
2022-08-27T11:36:33.018Z,21
2022-08-27T11:37:34.451Z,19
2022-08-27T11:38:36.708Z,19
2022-08-27T11:39:38.671Z,18
2022-08-27T11:40:40.054Z,20
2022-08-27T11:41:44.938Z,18
2022-08-27T11:42:43.313Z,18
2022-08-27T11:43:44.936Z,20
2022-08-27T11:44:45.900Z,23
2022-08-27T11:45:48.440Z,23
2022-08-27T11:46:48.006Z,23
2022-08-27T11:47:49.081Z,23
2022-08-27T11:48:49.898Z,21
2022-08-27T11:49:51.051Z,20
2022-08-27T11:50:51.846Z,20
2022-08-27T11:51:53.111Z,19
2022-08-27T11:52:53.974Z,18
2022-08-27T11:53:54.913Z,20
2022-08-27T11:54:55.847Z,20
2022-08-27T11:55:57.221Z,18
2022-08-27T11:56:57.823Z,18
2022-08-27T11:57:58.889Z,21
2022-08-27T11:58:59.853Z,25
2022-08-27T12:00:00.810Z,28
2022-08-27T12:01:04.665Z,26
2022-08-27T12:02:03.486Z,28
2022-08-27T12:03:04.900Z,31
2022-08-27T12:04:05.913Z,25
2022-08-27T12:05:06.834Z,24
2022-08-27T12:06:07.815Z,24
2022-08-27T12:07:08.925Z,23
2022-08-27T12:08:09.845Z,23
2022-08-27T12:09:10.843Z,26
2022-08-27T12:10:11.848Z,27
2022-08-27T12:11:12.823Z,28
2022-08-27T12:12:13.822Z,28
2022-08-27T12:13:14.829Z,28
2022-08-27T12:14:16.198Z,27
2022-08-27T12:15:17.471Z,25
2022-08-27T12:16:20.148Z,24
2022-08-27T12:17:21.078Z,23
2022-08-27T12:18:21.900Z,24
2022-08-27T12:19:23.112Z,23
2022-08-27T12:20:23.926Z,23
2022-08-27T12:21:24.903Z,26
2022-08-27T12:22:25.953Z,28
2022-08-27T12:23:27.132Z,26
2022-08-27T12:24:28.114Z,27
2022-08-27T12:25:29.080Z,27
2022-08-27T12:26:30.025Z,27
2022-08-27T12:27:30.850Z,29
2022-08-27T12:28:32.132Z,31
2022-08-27T12:29:33.024Z,29
2022-08-27T12:30:34.382Z,29
2022-08-27T12:31:35.978Z,28
2022-08-27T12:32:37.362Z,31
2022-08-27T12:33:39.586Z,32
2022-08-27T12:34:41.232Z,31
2022-08-27T12:35:42.202Z,33
2022-08-27T12:36:43.102Z,35
2022-08-27T12:37:45.285Z,33
2022-08-27T12:38:50.778Z,32
2022-08-27T12:39:49.112Z,31
2022-08-27T12:40:50.135Z,29
2022-08-27T12:41:52.078Z,27
2022-08-27T12:42:53.249Z,28
2022-08-27T12:43:57.071Z,27
2022-08-27T12:44:58.226Z,28
2022-08-27T12:45:59.162Z,29
2022-08-27T12:47:00.469Z,29
2022-08-27T12:48:01.965Z,29
2022-08-27T12:49:12.776Z,28
2022-08-27T12:50:04.812Z,28
2022-08-27T12:51:08.430Z,28
2022-08-27T12:52:12.804Z,29
2022-08-27T12:53:16.034Z,29
2022-08-27T12:54:19.856Z,29
2022-08-27T12:55:24.159Z,28
2022-08-27T12:56:28.286Z,28
2022-08-27T12:57:32.338Z,29
2022-08-27T12:58:36.343Z,33
2022-08-27T12:59:40.258Z,33
2022-08-27T13:00:44.173Z,34
2022-08-27T13:01:48.063Z,34
2022-08-27T13:02:52.395Z,33
2022-08-27T13:03:56.043Z,29
2022-08-27T13:05:00.608Z,27
2022-08-27T13:06:05.097Z,27
2022-08-27T13:07:09.092Z,26
2022-08-27T13:08:13.032Z,28
2022-08-27T13:09:16.898Z,28
2022-08-27T13:10:21.334Z,29
2022-08-27T13:11:28.067Z,28
2022-08-27T13:12:34.896Z,28
2022-08-27T13:13:39.140Z,27
2022-08-27T13:14:48.936Z,28
2022-08-27T13:15:50.288Z,31
2022-08-27T13:16:54.308Z,29
2022-08-27T13:18:02.425Z,25
2022-08-27T13:19:05.003Z,26
2022-08-27T13:20:09.267Z,26
2022-08-27T13:21:12.386Z,27
2022-08-27T13:22:15.924Z,26
2022-08-27T13:23:20.462Z,27
2022-08-27T13:24:23.403Z,33
2022-08-27T13:25:27.609Z,33
2022-08-27T13:26:31.202Z,34
2022-08-27T13:27:35.656Z,36
2022-08-27T13:28:39.577Z,34
2022-08-27T13:29:45.277Z,33
2022-08-27T13:30:54.191Z,32
2022-08-27T13:31:57.385Z,29
2022-08-27T13:33:03.531Z,29
2022-08-27T13:35:10.223Z,29
2022-08-27T13:36:13.255Z,27
2022-08-27T13:37:19.147Z,27
2022-08-27T13:38:22.118Z,25
2022-08-27T13:39:24.204Z,25
2022-08-27T13:40:27.302Z,26
2022-08-27T13:41:30.292Z,26
2022-08-27T13:42:33.677Z,26
2022-08-27T13:43:36.220Z,26
2022-08-27T13:44:39.356Z,26
2022-08-27T13:46:45.402Z,25
2022-08-27T13:47:51.034Z,26
2022-08-27T13:48:53.450Z,23
2022-08-27T13:53:33.414Z,27
2022-08-27T13:54:37.357Z,27
2022-08-27T13:55:41.054Z,29
2022-08-27T13:56:45.516Z,31
2022-08-27T13:57:52.849Z,27
2022-08-27T13:58:57.772Z,24
2022-08-27T14:00:05.369Z,23
2022-08-27T14:01:09.881Z,19
2022-08-27T14:02:14.571Z,19
2022-08-27T14:03:18.910Z,18
2022-08-27T14:04:23.587Z,19
2022-08-27T14:05:28.831Z,20
2022-08-27T14:06:35.445Z,18
2022-08-27T14:07:37.741Z,16
2022-08-27T14:08:45.836Z,18
2022-08-27T14:09:54.293Z,17
2022-08-27T14:10:55.738Z,17
2022-08-27T14:12:00.716Z,19
2022-08-27T14:13:05.848Z,18
2022-08-27T14:14:11.260Z,17
2022-08-27T14:15:15.718Z,17
2022-08-27T14:16:21.012Z,17
2022-08-27T14:17:29.448Z,17
2022-08-27T14:18:48.354Z,17
2022-08-27T14:19:36.977Z,17
2022-08-27T14:20:41.128Z,17
2022-08-27T14:21:45.867Z,17
2022-08-27T14:22:50.772Z,19
2022-08-27T14:23:56.233Z,17
2022-08-27T14:25:03.839Z,18
2022-08-27T14:26:08.845Z,17
2022-08-27T14:27:15.047Z,16
2022-08-27T14:28:22.792Z,19
2022-08-27T14:29:27.678Z,17
2022-08-27T14:30:31.079Z,17
2022-08-27T14:31:34.992Z,17
2022-08-27T14:32:39.016Z,19
2022-08-27T14:33:43.621Z,18
2022-08-27T14:34:50.951Z,16
2022-08-27T14:35:58.880Z,14
2022-08-27T14:37:03.785Z,14
2022-08-27T14:38:09.331Z,14
2022-08-27T14:39:13.939Z,16
2022-08-27T14:40:18.988Z,16
2022-08-27T14:41:24.067Z,16
2022-08-27T14:42:29.013Z,16
2022-08-27T14:43:33.930Z,14
2022-08-27T14:44:38.109Z,14
2022-08-27T14:45:42.983Z,16
2022-08-27T14:46:47.683Z,17
2022-08-27T14:47:52.053Z,16
2022-08-27T14:48:57.012Z,16
2022-08-27T14:50:04.366Z,16
2022-08-27T14:51:09.124Z,16
2022-08-27T14:52:13.840Z,17
2022-08-27T14:53:19.555Z,17
2022-08-27T14:54:23.775Z,17
2022-08-27T14:55:28.800Z,16
2022-08-27T14:56:34.096Z,14
2022-08-27T14:57:39.330Z,14
2022-08-27T14:58:44.198Z,14
2022-08-27T14:59:48.692Z,14
2022-08-27T15:00:54.226Z,14
2022-08-27T15:02:01.438Z,14
2022-08-27T15:03:06.079Z,14
2022-08-27T15:04:11.132Z,14
2022-08-27T15:05:16.210Z,14
2022-08-27T15:06:21.394Z,16